sensor_id;sensor_type;location;lat;lon;timestamp;pressure;altitude;pressure_sealevel;temperature;humidity
47761;BME280;33524;55.434;38.520;2023-03-11T00:01:03;99893.50;;;-7.34;82.97
47761;BME280;33524;55.434;38.520;2023-03-11T00:03:33;99891.56;;;-7.04;83.88
47761;BME280;33524;55.434;38.520;2023-03-11T00:06:03;99889.97;;;-7.18;82.37
47761;BME280;33524;55.434;38.520;2023-03-11T00:08:33;99885.53;;;-6.97;84.57
47761;BME280;33524;55.434;38.520;2023-03-11T00:11:02;99875.31;;;-6.97;82.86
47761;BME280;33524;55.434;38.520;2023-03-11T00:13:32;99878.25;;;-6.51;83.51
47761;BME280;33524;55.434;38.520;2023-03-11T00:16:04;99883.56;;;-6.71;82.24
47761;BME280;33524;55.434;38.520;2023-03-11T00:18:35;99881.97;;;-6.81;81.77
47761;BME280;33524;55.434;38.520;2023-03-11T00:21:04;99869.84;;;-6.62;82.92
47761;BME280;33524;55.434;38.520;2023-03-11T00:23:34;99881.19;;;-6.89;82.27
47761;BME280;33524;55.434;38.520;2023-03-11T00:26:04;99882.28;;;-7.16;82.83
47761;BME280;33524;55.434;38.520;2023-03-11T00:28:35;99884.91;;;-7.24;83.45
47761;BME280;33524;55.434;38.520;2023-03-11T00:31:05;99891.59;;;-7.07;83.74
47761;BME280;33524;55.434;38.520;2023-03-11T00:33:35;99892.13;;;-6.73;85.81
47761;BME280;33524;55.434;38.520;2023-03-11T00:36:06;99879.69;;;-7.08;82.40
47761;BME280;33524;55.434;38.520;2023-03-11T00:38:36;99901.22;;;-6.49;84.67
47761;BME280;33524;55.434;38.520;2023-03-11T00:41:05;99898.72;;;-6.54;82.27
47761;BME280;33524;55.434;38.520;2023-03-11T00:43:35;99893.00;;;-6.76;82.75
47761;BME280;33524;55.434;38.520;2023-03-11T00:46:05;99889.63;;;-6.81;82.36
47761;BME280;33524;55.434;38.520;2023-03-11T00:48:35;99885.41;;;-6.85;82.81
47761;BME280;33524;55.434;38.520;2023-03-11T00:51:06;99890.53;;;-6.82;82.71
47761;BME280;33524;55.434;38.520;2023-03-11T00:53:37;99889.81;;;-6.99;82.99
47761;BME280;33524;55.434;38.520;2023-03-11T00:56:08;99899.31;;;-7.14;83.71
47761;BME280;33524;55.434;38.520;2023-03-11T00:58:39;99891.69;;;-7.17;83.50
47761;BME280;33524;55.434;38.520;2023-03-11T01:01:12;99901.84;;;-7.14;84.17
47761;BME280;33524;55.434;38.520;2023-03-11T01:03:44;99902.75;;;-7.18;83.67
47761;BME280;33524;55.434;38.520;2023-03-11T01:06:17;99891.72;;;-7.23;84.21
47761;BME280;33524;55.434;38.520;2023-03-11T01:08:47;99888.19;;;-7.11;84.12
47761;BME280;33524;55.434;38.520;2023-03-11T01:11:17;99885.63;;;-7.08;83.76
47761;BME280;33524;55.434;38.520;2023-03-11T01:13:47;99885.59;;;-7.05;83.53
47761;BME280;33524;55.434;38.520;2023-03-11T01:16:17;99885.53;;;-6.96;83.33
47761;BME280;33524;55.434;38.520;2023-03-11T01:18:46;99879.47;;;-6.87;83.27
47761;BME280;33524;55.434;38.520;2023-03-11T01:21:17;99882.91;;;-6.93;83.08
47761;BME280;33524;55.434;38.520;2023-03-11T01:23:47;99884.56;;;-6.84;84.03
47761;BME280;33524;55.434;38.520;2023-03-11T01:26:16;99887.13;;;-6.87;83.64
47761;BME280;33524;55.434;38.520;2023-03-11T01:28:46;99882.06;;;-6.92;83.95
47761;BME280;33524;55.434;38.520;2023-03-11T01:31:15;99885.47;;;-6.88;83.69
47761;BME280;33524;55.434;38.520;2023-03-11T01:33:45;99885.41;;;-6.85;83.66
47761;BME280;33524;55.434;38.520;2023-03-11T01:36:15;99893.91;;;-6.80;83.68
47761;BME280;33524;55.434;38.520;2023-03-11T01:38:47;99893.84;;;-6.77;83.96
47761;BME280;33524;55.434;38.520;2023-03-11T01:41:17;99891.28;;;-6.75;84.13
47761;BME280;33524;55.434;38.520;2023-03-11T01:43:50;99896.41;;;-6.74;84.32
47761;BME280;33524;55.434;38.520;2023-03-11T01:46:27;99891.25;;;-6.71;84.31
47761;BME280;33524;55.434;38.520;2023-03-11T01:49:02;99898.09;;;-6.73;84.42
47761;BME280;33524;55.434;38.520;2023-03-11T01:51:39;99904.03;;;-6.69;84.43
47761;BME280;33524;55.434;38.520;2023-03-11T01:54:15;99898.91;;;-6.69;84.34
47761;BME280;33524;55.434;38.520;2023-03-11T01:56:45;99895.47;;;-6.66;84.50
47761;BME280;33524;55.434;38.520;2023-03-11T01:59:23;99902.25;;;-6.61;84.16
47761;BME280;33524;55.434;38.520;2023-03-11T02:02:16;99901.41;;;-6.61;84.09
47761;BME280;33524;55.434;38.520;2023-03-11T02:04:47;99899.63;;;-6.56;83.95
47761;BME280;33524;55.434;38.520;2023-03-11T02:07:17;99918.34;;;-6.54;84.22
47761;BME280;33524;55.434;38.520;2023-03-11T02:09:51;99888.59;;;-6.61;84.01
47761;BME280;33524;55.434;38.520;2023-03-11T02:12:21;99911.44;;;-6.46;83.88
47761;BME280;33524;55.434;38.520;2023-03-11T02:14:52;99915.34;;;-6.14;84.10
47761;BME280;33524;55.434;38.520;2023-03-11T02:17:23;99906.25;;;-5.14;88.50
47761;BME280;33524;55.434;38.520;2023-03-11T02:23:01;99896.75;;;-3.75;85.05
47761;BME280;33524;55.434;38.520;2023-03-11T02:28:06;99901.81;;;-3.71;84.22
47761;BME280;33524;55.434;38.520;2023-03-11T02:30:41;99895.37;;;-3.51;80.57
47761;BME280;33524;55.434;38.520;2023-03-11T02:33:13;99893.91;;;-3.24;81.88
47761;BME280;33524;55.434;38.520;2023-03-11T02:35:45;99888.38;;;-3.09;82.46
47761;BME280;33524;55.434;38.520;2023-03-11T02:38:15;99892.94;;;-3.20;80.52
47761;BME280;33524;55.434;38.520;2023-03-11T02:43:28;99890.19;;;-2.79;80.44
47761;BME280;33524;55.434;38.520;2023-03-11T02:46:02;99895.00;;;-2.66;79.67
47761;BME280;33524;55.434;38.520;2023-03-11T02:48:33;99901.19;;;-2.73;77.34
47761;BME280;33524;55.434;38.520;2023-03-11T02:51:04;99896.53;;;-2.91;81.46
47761;BME280;33524;55.434;38.520;2023-03-11T02:53:38;99891.56;;;-2.65;76.90
47761;BME280;33524;55.434;38.520;2023-03-11T02:56:09;99888.03;;;-2.62;78.16
47761;BME280;33524;55.434;38.520;2023-03-11T02:58:39;99876.03;;;-2.32;78.74
47761;BME280;33524;55.434;38.520;2023-03-11T03:01:12;99879.59;;;-2.36;77.40
47761;BME280;33524;55.434;38.520;2023-03-11T03:03:42;99877.81;;;-2.34;78.62
47761;BME280;33524;55.434;38.520;2023-03-11T03:06:12;99876.31;;;-3.41;79.13
47761;BME280;33524;55.434;38.520;2023-03-11T03:08:42;99883.22;;;-3.45;79.47
47761;BME280;33524;55.434;38.520;2023-03-11T03:11:12;99883.06;;;-2.68;80.72
47761;BME280;33524;55.434;38.520;2023-03-11T03:13:42;99890.78;;;-2.68;79.58
47761;BME280;33524;55.434;38.520;2023-03-11T03:16:12;99886.75;;;-3.13;78.68
47761;BME280;33524;55.434;38.520;2023-03-11T03:18:41;99891.97;;;-3.16;80.63
47761;BME280;33524;55.434;38.520;2023-03-11T03:21:10;99884.81;;;-3.39;77.64
47761;BME280;33524;55.434;38.520;2023-03-11T03:23:41;99879.22;;;-3.20;82.87
47761;BME280;33524;55.434;38.520;2023-03-11T03:26:12;99884.38;;;-2.86;80.29
47761;BME280;33524;55.434;38.520;2023-03-11T03:28:43;99881.47;;;-2.11;78.26
47761;BME280;33524;55.434;38.520;2023-03-11T03:31:13;99885.84;;;-2.13;77.93
47761;BME280;33524;55.434;38.520;2023-03-11T03:33:43;99887.19;;;-2.95;79.81
47761;BME280;33524;55.434;38.520;2023-03-11T03:36:14;99884.09;;;-2.44;79.63
47761;BME280;33524;55.434;38.520;2023-03-11T03:38:44;99886.59;;;-2.39;78.14
47761;BME280;33524;55.434;38.520;2023-03-11T03:41:14;99884.78;;;-3.01;76.80
47761;BME280;33524;55.434;38.520;2023-03-11T03:43:45;99880.50;;;-2.70;77.62
47761;BME280;33524;55.434;38.520;2023-03-11T03:46:14;99886.06;;;-2.85;80.12
47761;BME280;33524;55.434;38.520;2023-03-11T03:48:45;99890.00;;;-2.39;78.58
47761;BME280;33524;55.434;38.520;2023-03-11T03:51:16;99884.38;;;-2.53;79.34
47761;BME280;33524;55.434;38.520;2023-03-11T03:53:47;99891.34;;;-2.26;77.90
47761;BME280;33524;55.434;38.520;2023-03-11T03:56:17;99887.41;;;-2.70;79.67
47761;BME280;33524;55.434;38.520;2023-03-11T03:58:48;99892.78;;;-2.47;77.48
47761;BME280;33524;55.434;38.520;2023-03-11T04:01:18;99889.72;;;-2.30;77.51
47761;BME280;33524;55.434;38.520;2023-03-11T04:03:48;99884.91;;;-2.42;77.55
47761;BME280;33524;55.434;38.520;2023-03-11T04:06:20;99882.59;;;-2.51;77.71
47761;BME280;33524;55.434;38.520;2023-03-11T04:08:52;99876.00;;;-2.30;76.60
47761;BME280;33524;55.434;38.520;2023-03-11T04:11:22;99874.47;;;-2.06;76.14
47761;BME280;33524;55.434;38.520;2023-03-11T04:13:54;99868.91;;;-2.52;77.78
47761;BME280;33524;55.434;38.520;2023-03-11T04:16:24;99871.41;;;-2.19;76.83
47761;BME280;33524;55.434;38.520;2023-03-11T04:18:55;99869.56;;;-2.15;75.98
47761;BME280;33524;55.434;38.520;2023-03-11T04:21:25;99867.28;;;-2.25;76.55
47761;BME280;33524;55.434;38.520;2023-03-11T04:23:57;99860.03;;;-2.12;75.76
47761;BME280;33524;55.434;38.520;2023-03-11T04:26:28;99859.88;;;-2.37;76.07
47761;BME280;33524;55.434;38.520;2023-03-11T04:28:58;99856.13;;;-2.56;76.00
47761;BME280;33524;55.434;38.520;2023-03-11T04:31:28;99860.91;;;-2.42;77.23
47761;BME280;33524;55.434;38.520;2023-03-11T04:33:59;99853.97;;;-2.72;78.76
47761;BME280;33524;55.434;38.520;2023-03-11T04:36:29;99850.63;;;-2.44;78.04
47761;BME280;33524;55.434;38.520;2023-03-11T04:38:59;99845.91;;;-2.28;76.68
47761;BME280;33524;55.434;38.520;2023-03-11T04:41:29;99839.13;;;-2.31;76.89
47761;BME280;33524;55.434;38.520;2023-03-11T04:43:59;99840.03;;;-2.04;76.05
47761;BME280;33524;55.434;38.520;2023-03-11T04:46:29;99843.53;;;-2.36;75.85
47761;BME280;33524;55.434;38.520;2023-03-11T04:48:59;99843.56;;;-2.06;75.81
47761;BME280;33524;55.434;38.520;2023-03-11T04:51:29;99840.31;;;-2.13;75.35
47761;BME280;33524;55.434;38.520;2023-03-11T04:53:59;99847.25;;;-2.46;76.62
47761;BME280;33524;55.434;38.520;2023-03-11T04:56:29;99838.38;;;-2.36;75.89
47761;BME280;33524;55.434;38.520;2023-03-11T04:58:59;99841.19;;;-2.44;76.55
47761;BME280;33524;55.434;38.520;2023-03-11T05:01:30;99845.56;;;-2.78;78.67
47761;BME280;33524;55.434;38.520;2023-03-11T05:04:01;99839.16;;;-2.64;78.59
47761;BME280;33524;55.434;38.520;2023-03-11T05:06:31;99840.41;;;-2.16;76.86
47761;BME280;33524;55.434;38.520;2023-03-11T05:09:01;99835.81;;;-2.36;76.14
47761;BME280;33524;55.434;38.520;2023-03-11T05:11:33;99841.94;;;-2.40;77.40
47761;BME280;33524;55.434;38.520;2023-03-11T05:14:03;99828.97;;;-2.07;75.35
47761;BME280;33524;55.434;38.520;2023-03-11T05:16:32;99838.56;;;-2.42;77.49
47761;BME280;33524;55.434;38.520;2023-03-11T05:19:03;99830.97;;;-2.78;78.78
47761;BME280;33524;55.434;38.520;2023-03-11T05:21:52;99835.94;;;-2.72;78.95
47761;BME280;33524;55.434;38.520;2023-03-11T05:24:24;99831.72;;;-2.73;79.12
47761;BME280;33524;55.434;38.520;2023-03-11T05:26:55;99839.66;;;-2.82;79.92
47761;BME280;33524;55.434;38.520;2023-03-11T05:29:26;99828.81;;;-2.31;77.77
47761;BME280;33524;55.434;38.520;2023-03-11T05:31:57;99830.75;;;-2.09;75.95
47761;BME280;33524;55.434;38.520;2023-03-11T05:34:29;99828.44;;;-2.48;77.81
47761;BME280;33524;55.434;38.520;2023-03-11T05:36:58;99822.91;;;-2.05;75.30
47761;BME280;33524;55.434;38.520;2023-03-11T05:39:31;99826.56;;;-2.41;77.30
47761;BME280;33524;55.434;38.520;2023-03-11T05:42:00;99827.47;;;-2.14;76.18
47761;BME280;33524;55.434;38.520;2023-03-11T05:44:31;99825.34;;;-2.00;74.86
47761;BME280;33524;55.434;38.520;2023-03-11T05:47:02;99825.97;;;-2.51;78.05
47761;BME280;33524;55.434;38.520;2023-03-11T05:49:32;99819.38;;;-2.32;77.57
47761;BME280;33524;55.434;38.520;2023-03-11T05:52:01;99822.09;;;-2.07;75.67
47761;BME280;33524;55.434;38.520;2023-03-11T05:54:32;99817.44;;;-2.24;77.34
47761;BME280;33524;55.434;38.520;2023-03-11T05:57:01;99819.44;;;-2.04;75.92
47761;BME280;33524;55.434;38.520;2023-03-11T05:59:32;99816.84;;;-2.04;75.54
47761;BME280;33524;55.434;38.520;2023-03-11T06:02:03;99811.66;;;-2.02;75.26
47761;BME280;33524;55.434;38.520;2023-03-11T06:04:33;99820.47;;;-2.39;78.05
47761;BME280;33524;55.434;38.520;2023-03-11T06:07:03;99820.63;;;-2.15;76.69
47761;BME280;33524;55.434;38.520;2023-03-11T06:09:33;99820.00;;;-2.24;77.96
47761;BME280;33524;55.434;38.520;2023-03-11T06:12:07;99820.63;;;-2.15;77.37
47761;BME280;33524;55.434;38.520;2023-03-11T06:14:37;99824.44;;;-1.99;75.67
47761;BME280;33524;55.434;38.520;2023-03-11T06:17:07;99824.88;;;-2.13;78.22
47761;BME280;33524;55.434;38.520;2023-03-11T06:19:37;99813.25;;;-1.98;77.18
47761;BME280;33524;55.434;38.520;2023-03-11T06:22:08;99821.31;;;-1.80;74.46
47761;BME280;33524;55.434;38.520;2023-03-11T06:24:38;99825.19;;;-1.95;77.73
47761;BME280;33524;55.434;38.520;2023-03-11T06:27:07;99827.47;;;-2.14;76.12
47761;BME280;33524;55.434;38.520;2023-03-11T06:29:39;99833.63;;;-2.18;77.12
47761;BME280;33524;55.434;38.520;2023-03-11T06:32:09;99838.12;;;-1.97;76.56
47761;BME280;33524;55.434;38.520;2023-03-11T06:34:39;99841.91;;;-1.80;73.73
47761;BME280;33524;55.434;38.520;2023-03-11T06:37:09;99837.34;;;-1.71;74.77
47761;BME280;33524;55.434;38.520;2023-03-11T06:39:39;99834.59;;;-1.66;73.22
47761;BME280;33524;55.434;38.520;2023-03-11T06:42:11;99834.78;;;-1.72;73.78
47761;BME280;33524;55.434;38.520;2023-03-11T06:44:41;99830.44;;;-1.70;74.64
47761;BME280;33524;55.434;38.520;2023-03-11T06:47:10;99831.56;;;-1.79;77.87
47761;BME280;33524;55.434;38.520;2023-03-11T06:49:42;99825.81;;;-1.59;73.80
47761;BME280;33524;55.434;38.520;2023-03-11T06:52:12;99833.03;;;-1.44;73.80
47761;BME280;33524;55.434;38.520;2023-03-11T06:54:45;99831.25;;;-1.42;75.07
47761;BME280;33524;55.434;38.520;2023-03-11T06:57:17;99832.78;;;-1.36;71.64
47761;BME280;33524;55.434;38.520;2023-03-11T06:59:47;99835.81;;;-1.23;72.91
47761;BME280;33524;55.434;38.520;2023-03-11T07:02:18;99834.69;;;-1.16;71.06
47761;BME280;33524;55.434;38.520;2023-03-11T07:04:48;99827.22;;;-0.97;70.73
47761;BME280;33524;55.434;38.520;2023-03-11T07:07:19;99828.66;;;-0.90;69.90
47761;BME280;33524;55.434;38.520;2023-03-11T07:09:49;99820.41;;;-0.74;68.61
47761;BME280;33524;55.434;38.520;2023-03-11T07:12:18;99819.03;;;-0.85;70.04
47761;BME280;33524;55.434;38.520;2023-03-11T07:14:55;99815.88;;;-0.68;69.13
47761;BME280;33524;55.434;38.520;2023-03-11T07:17:26;99813.38;;;-0.71;69.58
47761;BME280;33524;55.434;38.520;2023-03-11T07:19:56;99799.62;;;-0.71;68.69
47761;BME280;33524;55.434;38.520;2023-03-11T07:22:26;99799.88;;;-0.79;68.45
47761;BME280;33524;55.434;38.520;2023-03-11T07:24:55;99793.09;;;-0.58;67.23
47761;BME280;33524;55.434;38.520;2023-03-11T07:27:26;99781.50;;;-0.70;69.17
47761;BME280;33524;55.434;38.520;2023-03-11T07:29:55;99785.38;;;-0.58;70.36
47761;BME280;33524;55.434;38.520;2023-03-11T07:32:25;99776.25;;;-0.92;68.76
47761;BME280;33524;55.434;38.520;2023-03-11T07:34:54;99785.53;;;-1.11;69.30
47761;BME280;33524;55.434;38.520;2023-03-11T07:37:23;99781.09;;;-1.08;70.53
47761;BME280;33524;55.434;38.520;2023-03-11T07:39:54;99778.25;;;-1.25;69.36
47761;BME280;33524;55.434;38.520;2023-03-11T07:42:23;99772.78;;;-1.16;69.09
47761;BME280;33524;55.434;38.520;2023-03-11T07:44:53;99777.16;;;-1.18;70.23
47761;BME280;33524;55.434;38.520;2023-03-11T07:47:26;99780.25;;;-1.08;69.27
47761;BME280;33524;55.434;38.520;2023-03-11T07:49:56;99781.75;;;-1.01;69.39
47761;BME280;33524;55.434;38.520;2023-03-11T07:52:29;99769.88;;;-1.07;69.01
47761;BME280;33524;55.434;38.520;2023-03-11T07:54:59;99755.38;;;-0.86;70.99
47761;BME280;33524;55.434;38.520;2023-03-11T07:57:29;99757.75;;;-0.79;68.75
47761;BME280;33524;55.434;38.520;2023-03-11T07:59:58;99754.03;;;-0.96;68.63
47761;BME280;33524;55.434;38.520;2023-03-11T08:02:29;99752.34;;;-0.97;68.63
47761;BME280;33524;55.434;38.520;2023-03-11T08:05:00;99750.66;;;-0.98;68.62
47761;BME280;33524;55.434;38.520;2023-03-11T08:07:31;99748.38;;;-0.82;68.93
47761;BME280;33524;55.434;38.520;2023-03-11T08:10:01;99743.47;;;-0.90;68.18
47761;BME280;33524;55.434;38.520;2023-03-11T08:12:39;99740.06;;;-0.90;69.33
47761;BME280;33524;55.434;38.520;2023-03-11T08:15:10;99726.47;;;-0.95;68.21
47761;BME280;33524;55.434;38.520;2023-03-11T08:17:39;99735.91;;;-0.94;68.23
47761;BME280;33524;55.434;38.520;2023-03-11T08:20:10;99726.41;;;-0.94;68.68
47761;BME280;33524;55.434;38.520;2023-03-11T08:22:40;99730.41;;;-0.85;68.13
47761;BME280;33524;55.434;38.520;2023-03-11T08:25:25;99725.34;;;-0.41;67.51
47761;BME280;33524;55.434;38.520;2023-03-11T08:27:55;99726.75;;;-0.56;67.13
47761;BME280;33524;55.434;38.520;2023-03-11T08:30:25;99706.72;;;-0.49;67.26
47761;BME280;33524;55.434;38.520;2023-03-11T08:32:55;99703.25;;;-0.26;68.40
47761;BME280;33524;55.434;38.520;2023-03-11T08:35:24;99704.81;;;0.00;67.29
47761;BME280;33524;55.434;38.520;2023-03-11T08:37:54;99690.25;;;-0.47;67.53
47761;BME280;33524;55.434;38.520;2023-03-11T08:40:26;99678.41;;;-0.52;67.33
47761;BME280;33524;55.434;38.520;2023-03-11T08:42:56;99666.37;;;-0.75;67.69
47761;BME280;33524;55.434;38.520;2023-03-11T08:45:25;99678.22;;;-0.70;67.87
47761;BME280;33524;55.434;38.520;2023-03-11T08:47:55;99673.37;;;-0.55;69.30
47761;BME280;33524;55.434;38.520;2023-03-11T08:50:25;99672.91;;;-0.89;67.84
47761;BME280;33524;55.434;38.520;2023-03-11T08:52:54;99677.28;;;-1.16;68.55
47761;BME280;33524;55.434;38.520;2023-03-11T08:55:29;99673.09;;;-1.18;68.87
47761;BME280;33524;55.434;38.520;2023-03-11T08:57:58;99673.50;;;-1.06;68.67
47761;BME280;33524;55.434;38.520;2023-03-11T09:00:28;99670.63;;;-0.98;68.44
47761;BME280;33524;55.434;38.520;2023-03-11T09:02:58;99669.84;;;-1.00;68.34
47761;BME280;33524;55.434;38.520;2023-03-11T09:05:29;99664.97;;;-0.84;68.90
47761;BME280;33524;55.434;38.520;2023-03-11T09:08:05;99660.47;;;-0.79;68.21
47761;BME280;33524;55.434;38.520;2023-03-11T09:10:36;99658.66;;;-0.77;68.01
47761;BME280;33524;55.434;38.520;2023-03-11T09:13:06;99653.62;;;-0.58;68.79
47761;BME280;33524;55.434;38.520;2023-03-11T09:15:35;99641.47;;;-0.76;68.05
47761;BME280;33524;55.434;38.520;2023-03-11T09:18:06;99639.72;;;-0.99;68.31
47761;BME280;33524;55.434;38.520;2023-03-11T09:20:40;99636.13;;;-0.95;70.33
47761;BME280;33524;55.434;38.520;2023-03-11T09:23:11;99640.34;;;-0.93;68.88
47761;BME280;33524;55.434;38.520;2023-03-11T09:25:42;99636.97;;;-0.95;68.49
47761;BME280;33524;55.434;38.520;2023-03-11T09:28:12;99631.97;;;-0.99;68.98
47761;BME280;33524;55.434;38.520;2023-03-11T09:30:42;99635.47;;;-1.00;69.39
47761;BME280;33524;55.434;38.520;2023-03-11T09:33:11;99638.84;;;-0.98;69.05
47761;BME280;33524;55.434;38.520;2023-03-11T09:35:41;99645.75;;;-0.99;69.65
47761;BME280;33524;55.434;38.520;2023-03-11T09:38:11;99639.62;;;-0.96;69.11
47761;BME280;33524;55.434;38.520;2023-03-11T09:40:45;99629.06;;;-0.90;69.44
47761;BME280;33524;55.434;38.520;2023-03-11T09:43:41;99640.50;;;-0.74;69.01
47761;BME280;33524;55.434;38.520;2023-03-11T09:46:37;99632.94;;;-0.78;68.86
47761;BME280;33524;55.434;38.520;2023-03-11T09:49:30;99629.47;;;-0.79;68.49
47761;BME280;33524;55.434;38.520;2023-03-11T09:52:14;99618.69;;;-0.89;68.66
47761;BME280;33524;55.434;38.520;2023-03-11T09:54:47;99609.28;;;-0.91;69.41
47761;BME280;33524;55.434;38.520;2023-03-11T09:57:26;99614.41;;;-0.90;69.17
47761;BME280;33524;55.434;38.520;2023-03-11T09:59:58;99616.38;;;-0.96;68.88
47761;BME280;33524;55.434;38.520;2023-03-11T10:02:39;99601.31;;;-1.07;69.25
47761;BME280;33524;55.434;38.520;2023-03-11T10:05:23;99600.53;;;-1.09;69.22
47761;BME280;33524;55.434;38.520;2023-03-11T10:08:04;99595.41;;;-1.11;70.24
47761;BME280;33524;55.434;38.520;2023-03-11T10:10:45;99585.03;;;-1.09;69.41
47761;BME280;33524;55.434;38.520;2023-03-11T10:13:24;99587.53;;;-1.08;71.71
47761;BME280;33524;55.434;38.520;2023-03-11T10:25:21;99570.91;;;-1.23;69.71
47761;BME280;33524;55.434;38.520;2023-03-11T10:28:04;99575.00;;;-1.17;69.94
47761;BME280;33524;55.434;38.520;2023-03-11T10:31:42;99580.94;;;-1.15;69.86
47761;BME280;33524;55.434;38.520;2023-03-11T10:34:33;99573.06;;;-1.12;70.06
47761;BME280;33524;55.434;38.520;2023-03-11T10:36:54;99561.59;;;-1.03;69.81
47761;BME280;33524;55.434;38.520;2023-03-11T10:39:26;99558.00;;;-0.99;69.48
47761;BME280;33524;55.434;38.520;2023-03-11T10:41:59;99546.88;;;-1.01;69.51
47761;BME280;33524;55.434;38.520;2023-03-11T10:44:34;99548.72;;;-1.05;69.53
47761;BME280;33524;55.434;38.520;2023-03-11T10:47:05;99543.44;;;-1.02;69.62
47761;BME280;33524;55.434;38.520;2023-03-11T10:49:36;99524.44;;;-0.99;70.01
47761;BME280;33524;55.434;38.520;2023-03-11T10:52:07;99520.06;;;-0.97;69.36
47761;BME280;33524;55.434;38.520;2023-03-11T10:54:41;99521.97;;;-1.02;69.35
47761;BME280;33524;55.434;38.520;2023-03-11T10:57:24;99507.31;;;-1.02;69.38
47761;BME280;33524;55.434;38.520;2023-03-11T10:59:59;99505.50;;;-0.99;69.87
47761;BME280;33524;55.434;38.520;2023-03-11T11:02:37;99503.41;;;-0.90;69.44
47761;BME280;33524;55.434;38.520;2023-03-11T11:05:32;99497.16;;;-0.84;69.22
47761;BME280;33524;55.434;38.520;2023-03-11T11:08:14;99487.62;;;-0.82;68.90
47761;BME280;33524;55.434;38.520;2023-03-11T11:10:56;99485.94;;;-0.83;68.86
47761;BME280;33524;55.434;38.520;2023-03-11T11:13:28;99483.19;;;-0.78;68.77
47761;BME280;33524;55.434;38.520;2023-03-11T11:16:03;99472.84;;;-0.78;68.78
47761;BME280;33524;55.434;38.520;2023-03-11T11:18:41;99451.91;;;-0.93;68.92
47761;BME280;33524;55.434;38.520;2023-03-11T11:21:16;99460.13;;;-0.83;69.06
47761;BME280;33524;55.434;38.520;2023-03-11T11:24:35;99445.72;;;-0.89;69.00
47761;BME280;33524;55.434;38.520;2023-03-11T11:29:42;99439.19;;;-0.97;69.28
47761;BME280;33524;55.434;38.520;2023-03-11T11:34:59;99427.06;;;-0.95;69.32
47761;BME280;33524;55.434;38.520;2023-03-11T11:37:34;99439.91;;;-0.94;70.22
47761;BME280;33524;55.434;38.520;2023-03-11T11:40:25;99432.09;;;-0.92;69.34
47761;BME280;33524;55.434;38.520;2023-03-11T11:43:00;99430.66;;;-0.99;69.36
47761;BME280;33524;55.434;38.520;2023-03-11T11:45:53;99439.06;;;-0.94;69.47
47761;BME280;33524;55.434;38.520;2023-03-11T11:51:04;99425.78;;;-0.85;69.20
47761;BME280;33524;55.434;38.520;2023-03-11T11:53:51;99419.84;;;-0.87;69.20
47761;BME280;33524;55.434;38.520;2023-03-11T11:56:25;99419.19;;;-0.92;69.33
47761;BME280;33524;55.434;38.520;2023-03-11T11:58:55;99404.75;;;-0.96;69.32
47761;BME280;33524;55.434;38.520;2023-03-11T12:01:29;99411.56;;;-0.95;69.36
47761;BME280;33524;55.434;38.520;2023-03-11T12:04:13;99391.94;;;-0.99;69.35
47761;BME280;33524;55.434;38.520;2023-03-11T12:10:10;99403.72;;;-0.92;70.22
47761;BME280;33524;55.434;38.520;2023-03-11T12:18:38;99416.56;;;-0.91;69.40
47761;BME280;33524;55.434;38.520;2023-03-11T12:21:21;99418.94;;;-0.86;69.40
47761;BME280;33524;55.434;38.520;2023-03-11T12:27:02;99408.38;;;-0.80;70.26
47761;BME280;33524;55.434;38.520;2023-03-11T12:29:39;99409.16;;;-0.78;69.39
47761;BME280;33524;55.434;38.520;2023-03-11T12:32:31;99409.59;;;-0.89;70.10
47761;BME280;33524;55.434;38.520;2023-03-11T12:35:09;99413.63;;;-0.83;69.45
47761;BME280;33524;55.434;38.520;2023-03-11T12:37:55;99411.97;;;-0.84;70.73
47761;BME280;33524;55.434;38.520;2023-03-11T12:40:57;99407.34;;;-0.76;69.46
47761;BME280;33524;55.434;38.520;2023-03-11T12:43:55;99398.25;;;-0.85;69.89
47761;BME280;33524;55.434;38.520;2023-03-11T12:47:00;99388.69;;;-0.83;69.76
47761;BME280;33524;55.434;38.520;2023-03-11T12:49:30;99393.19;;;-0.88;69.98
47761;BME280;33524;55.434;38.520;2023-03-11T12:52:16;99385.69;;;-0.94;71.92
47761;BME280;33524;55.434;38.520;2023-03-11T12:54:47;99385.97;;;-0.79;69.86
47761;BME280;33524;55.434;38.520;2023-03-11T13:05:56;99372.06;;;-0.77;69.80
47761;BME280;33524;55.434;38.520;2023-03-11T13:08:50;99368.03;;;-0.83;70.25
47761;BME280;33524;55.434;38.520;2023-03-11T13:11:41;99367.56;;;-0.92;70.56
47761;BME280;33524;55.434;38.520;2023-03-11T13:16:47;99360.34;;;-0.84;70.20
47761;BME280;33524;55.434;38.520;2023-03-11T13:21:59;99342.53;;;-0.90;70.14
47761;BME280;33524;55.434;38.520;2023-03-11T13:24:38;99340.47;;;-0.82;70.01
47761;BME280;33524;55.434;38.520;2023-03-11T13:27:26;99327.06;;;-0.90;70.15
47761;BME280;33524;55.434;38.520;2023-03-11T13:30:19;99331.19;;;-0.86;70.13
47761;BME280;33524;55.434;38.520;2023-03-11T13:33:00;99324.97;;;-0.82;70.09
47761;BME280;33524;55.434;38.520;2023-03-11T13:35:45;99316.47;;;-0.84;70.27
47761;BME280;33524;55.434;38.520;2023-03-11T13:41:18;99303.03;;;-0.92;70.52
47761;BME280;33524;55.434;38.520;2023-03-11T13:43:50;99301.94;;;-0.87;70.31
47761;BME280;33524;55.434;38.520;2023-03-11T13:46:30;99298.25;;;-0.81;70.36
47761;BME280;33524;55.434;38.520;2023-03-11T13:52:08;99293.75;;;-0.96;70.67
47761;BME280;33524;55.434;38.520;2023-03-11T13:54:42;99282.47;;;-0.94;70.71
47761;BME280;33524;55.434;38.520;2023-03-11T13:59:51;99283.69;;;-0.82;70.51
47761;BME280;33524;55.434;38.520;2023-03-11T14:02:23;99278.72;;;-0.87;70.50
47761;BME280;33524;55.434;38.520;2023-03-11T14:05:04;99278.00;;;-0.90;70.52
47761;BME280;33524;55.434;38.520;2023-03-11T14:07:34;99270.22;;;-0.89;70.64
47761;BME280;33524;55.434;38.520;2023-03-11T14:10:15;99271.88;;;-0.88;70.57
47761;BME280;33524;55.434;38.520;2023-03-11T14:12:43;99263.56;;;-0.94;70.86
47761;BME280;33524;55.434;38.520;2023-03-11T14:15:19;99263.41;;;-0.91;70.71
47761;BME280;33524;55.434;38.520;2023-03-11T14:17:48;99267.47;;;-0.86;70.61
47761;BME280;33524;55.434;38.520;2023-03-11T14:20:20;99266.84;;;-0.91;70.91
47761;BME280;33524;55.434;38.520;2023-03-11T14:22:51;99265.03;;;-0.89;70.60